Hengist.it
  Home
 Volo reale
   Pilot Logbook
   Private Pilot Licence
   I miei aerei
   Scuola volo FlySabaudia
   Aeroporto dell'Urbe
   Galleria fotografica
   Galleria video
 Volo virtuale
   Ivao
   Flight Simulator
   Air Traffic Control
   VFR Tour 2007
   VFR World Tour 2008
 
 Servizi
   Meteo & Notam
   Airports & Navaids
   Effemeridi
   Forum A.O.P.A.
   Pagina degli ospiti
   Contatti
   Links
 
 Altri Hobbies
   A.S. Roma
   Home Cinema
   X-Box 360 / PC
 
 
   VFR Tour 2007

Il piano di volo




>>>> Il tragitto sulla mappa <<<<


Dopo una breve vacanza sulla costiera amalfitana, rieccomi a Salerno, pronto a partire alla volta di Bari!

LIRI 181755Z 21002KT CAVOK 31/15 Q1012 NOSIG

Condizioni meteo meravigliose, si parte!



decollo dalla pista 23 di Pontecagnano




3000 piedi prossimo a Benevento...




2500 piedi prossimo alla Foce del Fortone. A sinistra, il lago di Lesina...




in direzione di Vieste, a sinistra l'Adriatico ed a destra il lago di Varano...




1500 piedi, prossimo a Barletta...




dopo quasi due ore di volo, atterro finalmente a Bari!



<<< Indietro


 
 

2000-2007 Hengist.it - Tutti i diritti riservati